Morganza, Maryland
Current Conditions -  °F | °C
As of 1:40 AM on Sunday 26 Oct 2014 (Local Time) from K2W6 Reporting Station
Clear Clear  
Wind Chill: 54°   Ceiling: Unl
Heat Index: 54°   Visibility: 10mi
Dew Point: 45°   Wind: 3mph
Humidity: 72%   Direction: 230°SW
Pressure: 29.72"   Gusts: NA
Location:  38.38°N, 76.7°W
Report Text: K2W6 260540Z AUTO 23003KT 10SM CLR 12/07 A2972 RMK AO1
Loading
Personal Weather Stations






























Interactive Weather Map
Tropical Storm Tracking
New forecast layout! Learn more

10-Day Weather Forecast

Advertisements
Track Severe Weather on mobile